Time;durP1;ratioP1;P1;durP2;ratioP2;P2;SDS_P1;SDS_P2;PMS_P1;PMS_P2;Temp;Humidity;BMP_temperature;BMP_pressure;BME280_temperature;BME280_humidity;BME280_pressure;Samples;Min_cycle;Max_cycle;Signal;HPM_P1;HPM_P2
2023/10/25 00:01:30;;;;;;;22.80;13.15;;;13.10;99.90;;;;;;2603684;54;21162;31
2023/10/25 00:04:06;;;;;;;21.00;13.80;;;13.00;99.90;;;;;;2622125;46;20030;31
2023/10/25 00:06:42;;;;;;;25.00;14.25;;;13.00;99.90;;;;;;2603713;54;20034;31
2023/10/25 00:09:18;;;;;;;21.27;13.90;;;13.00;99.90;;;;;;2603555;54;20603;31
2023/10/25 00:11:54;;;;;;;20.75;13.35;;;13.00;99.90;;;;;;2603851;54;20167;31
2023/10/25 00:14:32;;;;;;;23.63;13.90;;;12.90;99.90;;;;;;2621813;46;20961;31
2023/10/25 00:17:07;;;;;;;23.33;14.00;;;12.90;99.90;;;;;;2603707;54;20022;31
2023/10/25 00:19:42;;;;;;;23.73;15.13;;;12.90;99.90;;;;;;2603712;54;20893;31
2023/10/25 00:22:18;;;;;;;23.25;14.65;;;12.90;99.90;;;;;;2603569;54;20898;31
2023/10/25 00:24:54;;;;;;;25.00;14.35;;;12.90;99.90;;;;;;2603595;54;20043;31
2023/10/25 00:27:31;;;;;;;26.02;14.57;;;12.90;99.90;;;;;;2603609;54;20047;31
2023/10/25 00:30:12;;;;;;;23.60;14.25;;;12.90;99.90;;;;;;2603797;54;20033;31
2023/10/25 00:32:48;;;;;;;24.45;14.63;;;12.80;99.90;;;;;;2603452;54;20035;31
2023/10/25 00:35:24;;;;;;;22.20;13.75;;;12.80;99.90;;;;;;2603522;54;20935;31
2023/10/25 00:37:59;;;;;;;23.67;14.82;;;12.80;99.90;;;;;;2603494;54;20149;31
2023/10/25 00:40:34;;;;;;;24.15;14.80;;;12.80;99.90;;;;;;2720506;39;20557;31
2023/10/25 00:43:19;;;;;;;22.70;14.05;;;12.80;99.90;;;;;;2603658;54;20027;31
2023/10/25 00:46:18;;;;;;;24.35;14.10;;;12.80;99.90;;;;;;2603480;54;20053;31
2023/10/25 00:48:55;;;;;;;19.20;12.80;;;12.80;99.90;;;;;;2615119;46;20054;31
2023/10/25 00:51:30;;;;;;;21.38;14.07;;;12.80;99.90;;;;;;2603419;54;20581;31
2023/10/25 00:54:10;;;;;;;21.30;13.85;;;12.80;99.90;;;;;;2603821;54;20834;31
2023/10/25 00:56:45;;;;;;;27.65;13.93;;;12.80;99.90;;;;;;2603659;54;20085;31
2023/10/25 00:59:21;;;;;;;24.73;14.40;;;12.80;99.90;;;;;;2603554;54;20030;31
2023/10/25 01:01:59;;;;;;;22.20;13.50;;;12.80;99.90;;;;;;2603533;54;20075;31
2023/10/25 01:04:34;;;;;;;24.02;13.82;;;12.80;99.90;;;;;;2603144;54;20054;31
2023/10/25 01:07:15;;;;;;;24.00;13.85;;;12.80;99.90;;;;;;2603542;54;20862;31
2023/10/25 01:09:50;;;;;;;18.85;13.30;;;12.80;99.90;;;;;;2603463;54;20823;31
2023/10/25 01:12:25;;;;;;;20.55;13.05;;;12.70;99.90;;;;;;2603684;54;20613;31
2023/10/25 01:15:01;;;;;;;24.00;14.33;;;12.70;99.90;;;;;;2603618;54;20963;31
2023/10/25 01:17:40;;;;;;;26.92;14.75;;;12.70;99.90;;;;;;2603647;54;20923;31
2023/10/25 01:20:18;;;;;;;21.75;13.65;;;12.70;99.90;;;;;;2603511;54;20034;31
2023/10/25 01:22:56;;;;;;;24.90;14.10;;;12.70;99.90;;;;;;2603370;54;19986;31
2023/10/25 01:25:35;;;;;;;21.75;14.15;;;12.60;99.90;;;;;;2603401;54;20824;31
2023/10/25 01:28:10;;;;;;;22.35;13.77;;;12.60;99.90;;;;;;2621848;46;20104;31
2023/10/25 01:30:49;;;;;;;;;;;12.60;99.90;;;;;;2603657;54;20902;31
2023/10/25 01:33:25;;;;;;;23.90;13.95;;;12.60;99.90;;;;;;2603566;54;19941;31
2023/10/25 01:36:01;;;;;;;20.80;13.27;;;12.60;99.90;;;;;;2603313;54;20100;31
2023/10/25 01:38:41;;;;;;;22.20;13.45;;;12.60;99.90;;;;;;2603408;54;20886;31
2023/10/25 01:41:18;;;;;;;19.75;12.90;;;12.60;99.90;;;;;;2603497;54;20843;31
2023/10/25 01:43:55;;;;;;;24.73;13.48;;;12.50;99.90;;;;;;2603293;54;20932;31
2023/10/25 01:46:32;;;;;;;20.10;13.80;;;12.50;99.90;;;;;;2603197;54;20746;31
2023/10/25 01:49:08;;;;;;;24.40;12.85;;;12.50;99.90;;;;;;2603250;54;20918;31
2023/10/25 01:51:44;;;;;;;21.77;13.18;;;12.50;99.90;;;;;;2603479;54;20026;31
2023/10/25 01:54:22;;;;;;;19.03;12.83;;;12.50;99.90;;;;;;2621652;46;20857;31
2023/10/25 01:56:58;;;;;;;25.00;14.13;;;12.50;99.90;;;;;;2603243;54;20035;31
2023/10/25 01:59:33;;;;;;;;;;;12.50;99.90;;;;;;2603293;54;20820;31
2023/10/25 02:02:08;;;;;;;20.00;12.60;;;12.50;99.90;;;;;;2602499;54;19942;31
2023/10/25 02:04:45;;;;;;;22.75;12.95;;;12.50;99.90;;;;;;2603306;54;20081;31
2023/10/25 02:07:20;;;;;;;22.63;13.55;;;12.40;99.90;;;;;;2621593;46;20022;31
2023/10/25 02:09:58;;;;;;;21.23;13.07;;;12.50;99.90;;;;;;2603186;54;20999;31
2023/10/25 02:12:37;;;;;;;24.30;13.70;;;12.40;99.90;;;;;;2621947;46;20838;31
2023/10/25 02:15:16;;;;;;;27.95;15.13;;;12.40;99.90;;;;;;2603327;54;20854;31
2023/10/25 02:17:52;;;;;;;26.40;14.80;;;12.40;99.90;;;;;;2603220;54;20970;31
2023/10/25 02:20:34;;;;;;;25.20;14.40;;;12.40;99.90;;;;;;2603253;54;20568;31
2023/10/25 02:23:12;;;;;;;21.60;13.90;;;12.40;99.90;;;;;;2621898;46;20877;31
2023/10/25 02:25:51;;;;;;;21.58;12.18;;;12.40;99.90;;;;;;2603252;54;20234;31
2023/10/25 02:28:27;;;;;;;23.35;13.85;;;12.40;99.90;;;;;;2603152;54;20085;31
2023/10/25 02:31:03;;;;;;;24.80;15.20;;;12.40;99.90;;;;;;2603357;54;20027;31
2023/10/25 02:33:38;;;;;;;23.40;14.50;;;12.40;99.90;;;;;;2603091;54;20782;31
2023/10/25 02:36:13;;;;;;;29.33;16.07;;;12.40;99.90;;;;;;2603367;54;20022;31
2023/10/25 02:38:50;;;;;;;28.98;16.92;;;12.40;99.90;;;;;;2603388;54;20830;31
2023/10/25 02:41:30;;;;;;;28.25;15.75;;;12.40;99.90;;;;;;2603059;54;20503;31
2023/10/25 02:44:08;;;;;;;27.30;16.58;;;12.40;99.90;;;;;;2602987;54;20971;31
2023/10/25 02:46:43;;;;;;;27.40;15.05;;;12.40;99.90;;;;;;2621346;46;20954;31
2023/10/25 02:49:19;;;;;;;32.93;17.83;;;12.40;99.90;;;;;;2602837;54;20033;31
2023/10/25 02:51:57;;;;;;;28.23;17.08;;;12.40;99.90;;;;;;2603175;54;20794;31
2023/10/25 02:54:32;;;;;;;35.17;18.35;;;12.40;99.90;;;;;;2603204;54;20030;31
2023/10/25 02:57:11;;;;;;;30.13;17.92;;;12.40;99.90;;;;;;2621662;46;20813;31
2023/10/25 02:59:47;;;;;;;41.17;18.98;;;12.40;99.90;;;;;;2719730;39;21489;31
2023/10/25 03:02:24;;;;;;;40.28;20.13;;;12.40;99.90;;;;;;2603234;54;20152;31
2023/10/25 03:05:01;;;;;;;43.55;21.70;;;12.40;99.90;;;;;;2603197;54;20899;31
2023/10/25 03:07:37;;;;;;;37.45;20.30;;;12.40;99.90;;;;;;2621149;46;20887;31
2023/10/25 03:10:12;;;;;;;49.78;20.98;;;12.40;99.90;;;;;;2603184;54;20026;31
2023/10/25 03:12:51;;;;;;;;;;;12.40;99.90;;;;;;2603413;54;20027;31
2023/10/25 03:15:27;;;;;;;46.65;20.95;;;12.30;99.90;;;;;;2602968;54;20810;31
2023/10/25 03:18:02;;;;;;;53.70;21.60;;;12.30;99.90;;;;;;2603142;54;20027;31
2023/10/25 03:20:38;;;;;;;49.50;23.37;;;12.40;99.90;;;;;;2603150;54;20851;31
2023/10/25 03:23:14;;;;;;;52.80;23.13;;;12.40;99.90;;;;;;2602999;54;20053;31
2023/10/25 03:25:50;;;;;;;54.80;24.30;;;12.30;99.90;;;;;;2603283;54;20045;31
2023/10/25 03:28:29;;;;;;;49.08;23.88;;;12.30;99.90;;;;;;2603635;54;20804;31
2023/10/25 03:31:07;;;;;;;56.80;24.25;;;12.30;99.90;;;;;;2603644;54;20948;31
2023/10/25 03:33:43;;;;;;;54.80;22.65;;;12.30;99.90;;;;;;2603983;54;20796;31
2023/10/25 03:36:18;;;;;;;57.17;23.83;;;12.30;99.90;;;;;;2603741;54;20843;31
2023/10/25 03:38:52;;;;;;;53.15;24.20;;;12.30;99.90;;;;;;2622117;46;20245;31
2023/10/25 03:41:28;;;;;;;60.30;24.50;;;12.30;99.90;;;;;;2603090;54;20876;31
2023/10/25 03:44:10;;;;;;;57.05;27.00;;;12.40;99.90;;;;;;2603830;54;20129;31
2023/10/25 03:46:47;;;;;;;59.80;25.55;;;12.30;99.90;;;;;;2603774;54;20062;31
2023/10/25 03:49:22;;;;;;;57.83;25.50;;;12.30;99.90;;;;;;2603886;54;20089;31
2023/10/25 03:51:57;;;;;;;60.40;24.03;;;12.30;99.90;;;;;;2603741;54;20889;31
2023/10/25 03:54:33;;;;;;;51.55;23.50;;;12.30;99.90;;;;;;2603865;54;20263;31
2023/10/25 03:57:08;;;;;;;55.90;24.25;;;12.30;99.90;;;;;;2603672;54;20105;31
2023/10/25 03:59:46;;;;;;;52.00;23.23;;;12.30;99.90;;;;;;2603979;54;20031;31
2023/10/25 04:02:21;;;;;;;50.15;24.00;;;12.30;99.90;;;;;;2603636;54;20150;31
2023/10/25 04:04:56;;;;;;;47.05;24.20;;;12.30;99.90;;;;;;2603578;54;20136;31
2023/10/25 04:07:30;;;;;;;45.03;23.47;;;12.30;99.90;;;;;;2622187;46;20033;31
2023/10/25 04:10:07;;;;;;;48.15;22.38;;;12.30;99.90;;;;;;2622142;46;20037;31
2023/10/25 04:12:41;;;;;;;48.92;22.38;;;12.30;99.90;;;;;;2603586;54;20065;31
2023/10/25 04:15:19;;;;;;;42.42;20.88;;;12.30;99.90;;;;;;2603714;54;20594;31
2023/10/25 04:17:54;;;;;;;48.40;19.70;;;12.40;99.90;;;;;;2603516;54;20165;31
2023/10/25 04:20:33;;;;;;;43.00;19.35;;;12.30;99.90;;;;;;2603645;54;20832;31
2023/10/25 04:23:07;;;;;;;45.53;20.52;;;12.30;99.90;;;;;;2603768;54;20026;31
2023/10/25 04:25:45;;;;;;;42.70;19.27;;;12.30;99.90;;;;;;2603687;54;20026;31
2023/10/25 04:28:19;;;;;;;35.45;17.25;;;12.30;99.90;;;;;;2603503;54;20022;31
2023/10/25 04:30:58;;;;;;;35.30;16.60;;;12.40;99.90;;;;;;2603731;54;20029;31
2023/10/25 04:33:33;;;;;;;36.25;16.73;;;12.30;99.90;;;;;;2603504;54;20271;31
2023/10/25 04:36:10;;;;;;;37.33;16.67;;;12.30;99.90;;;;;;2603469;54;20022;31
2023/10/25 04:38:49;;;;;;;30.77;16.10;;;12.30;99.90;;;;;;2603276;54;20054;31
2023/10/25 04:41:24;;;;;;;33.63;16.23;;;12.40;99.90;;;;;;2603507;54;20033;31
2023/10/25 04:44:03;;;;;;;35.23;16.73;;;12.30;99.90;;;;;;2603415;54;20077;31
2023/10/25 04:46:42;;;;;;;29.40;15.67;;;12.30;99.90;;;;;;2603661;54;20772;31
2023/10/25 04:49:21;;;;;;;32.00;15.23;;;12.30;99.90;;;;;;2622089;46;20032;31
2023/10/25 04:52:00;;;;;;;28.80;14.60;;;12.30;99.90;;;;;;2701983;39;20448;31
2023/10/25 04:54:36;;;;;;;33.20;15.18;;;12.30;99.90;;;;;;2702126;39;21381;31
2023/10/25 04:57:11;;;;;;;28.40;14.20;;;12.30;99.90;;;;;;2603416;54;20901;31
2023/10/25 04:59:50;;;;;;;26.35;14.00;;;12.30;99.90;;;;;;2603570;54;20830;31
2023/10/25 05:02:29;;;;;;;27.38;14.57;;;12.30;99.90;;;;;;2603870;54;21248;31
2023/10/25 05:05:03;;;;;;;27.08;15.18;;;12.30;99.90;;;;;;2603553;54;20943;31
2023/10/25 05:07:39;;;;;;;27.13;14.55;;;12.30;99.90;;;;;;2603544;54;20844;31
2023/10/25 05:10:16;;;;;;;27.08;14.95;;;12.30;99.90;;;;;;2603435;54;20023;31
2023/10/25 05:12:53;;;;;;;25.40;14.60;;;12.30;99.90;;;;;;2603326;54;19935;31
2023/10/25 05:15:31;;;;;;;25.13;13.95;;;12.30;99.90;;;;;;2621640;46;20937;31
2023/10/25 05:18:21;;;;;;;25.10;13.90;;;12.30;99.90;;;;;;2621676;46;20030;31
2023/10/25 05:21:00;;;;;;;27.05;14.80;;;12.30;99.90;;;;;;2603446;54;20033;31
2023/10/25 05:23:35;;;;;;;24.75;13.35;;;12.30;99.90;;;;;;2603368;54;25100;31
2023/10/25 05:26:13;;;;;;;28.40;14.65;;;12.30;99.90;;;;;;2603401;54;20931;31
2023/10/25 05:28:50;;;;;;;30.77;15.17;;;12.30;99.90;;;;;;2603358;54;20029;31
2023/10/25 05:31:24;;;;;;;25.30;13.55;;;12.30;99.90;;;;;;2603623;54;20029;31
2023/10/25 05:34:06;;;;;;;26.77;14.45;;;12.30;99.90;;;;;;2603335;54;20908;31
2023/10/25 05:36:40;;;;;;;24.23;13.40;;;12.30;99.90;;;;;;2603592;54;20088;31
2023/10/25 05:39:16;;;;;;;28.55;13.85;;;12.30;99.90;;;;;;2621906;46;20558;31
2023/10/25 05:41:51;;;;;;;31.27;14.70;;;12.30;99.90;;;;;;2603451;54;20033;31
2023/10/25 05:44:32;;;;;;;27.00;14.47;;;12.30;99.90;;;;;;2603313;54;20910;31
2023/10/25 05:47:08;;;;;;;27.33;14.85;;;12.30;99.90;;;;;;2603136;54;20991;31
2023/10/25 05:49:49;;;;;;;26.45;13.85;;;12.30;99.90;;;;;;2603472;54;20839;31
2023/10/25 05:52:27;;;;;;;27.00;14.40;;;12.30;99.90;;;;;;2603271;54;20037;31
2023/10/25 05:55:04;;;;;;;26.65;14.30;;;12.30;99.90;;;;;;2603610;54;20089;31
2023/10/25 05:57:41;;;;;;;23.95;13.63;;;12.30;99.90;;;;;;2603121;54;20947;31
2023/10/25 06:00:19;;;;;;;30.75;13.95;;;12.30;99.90;;;;;;2602976;54;20842;31
2023/10/25 06:02:55;;;;;;;31.20;15.35;;;12.30;99.90;;;;;;2603321;54;21011;31
2023/10/25 06:05:35;;;;;;;33.65;15.20;;;12.30;99.90;;;;;;2621643;46;20030;31
2023/10/25 06:08:15;;;;;;;28.95;15.55;;;12.30;99.90;;;;;;2603112;54;22679;31
2023/10/25 06:10:55;;;;;;;28.85;15.60;;;12.30;99.90;;;;;;2603216;54;20050;31
2023/10/25 06:13:33;;;;;;;29.60;15.15;;;12.30;99.90;;;;;;2603464;54;20034;31
2023/10/25 06:16:14;;;;;;;28.27;15.35;;;12.30;99.90;;;;;;2621063;46;20069;31
2023/10/25 06:18:52;;;;;;;28.00;14.38;;;12.30;99.90;;;;;;2603140;54;20045;31
2023/10/25 06:21:32;;;;;;;33.80;15.15;;;12.30;99.90;;;;;;2602978;54;20027;31
2023/10/25 06:24:10;;;;;;;23.00;13.60;;;12.20;99.90;;;;;;2603287;54;20818;31
2023/10/25 06:26:44;;;;;;;22.27;12.75;;;12.30;99.90;;;;;;2602369;54;20022;31
2023/10/25 06:29:20;;;;;;;24.00;12.02;;;12.30;99.90;;;;;;2621821;46;20042;31
2023/10/25 06:31:56;;;;;;;23.25;12.32;;;12.30;99.90;;;;;;2603438;54;19939;31
2023/10/25 06:34:32;;;;;;;21.90;12.27;;;12.30;99.90;;;;;;2603056;54;20036;31
2023/10/25 06:37:15;;;;;;;25.45;12.50;;;12.30;99.90;;;;;;2603403;54;20022;31
2023/10/25 06:39:53;;;;;;;19.90;11.15;;;12.30;99.90;;;;;;2621685;46;20964;31
2023/10/25 06:42:31;;;;;;;25.00;11.60;;;12.30;99.90;;;;;;2603297;54;20866;31
2023/10/25 06:45:08;;;;;;;21.10;10.90;;;12.40;99.90;;;;;;2603138;54;20837;31
2023/10/25 06:47:45;;;;;;;20.25;10.82;;;12.40;99.90;;;;;;2603106;54;20246;31
2023/10/25 06:50:25;;;;;;;15.30;9.65;;;12.40;99.90;;;;;;2602955;54;20026;31
2023/10/25 06:53:04;;;;;;;16.23;9.52;;;12.40;99.90;;;;;;2603272;54;20022;31
2023/10/25 06:55:39;;;;;;;19.27;9.23;;;12.40;99.90;;;;;;2603374;54;20031;31
2023/10/25 06:58:14;;;;;;;13.70;8.23;;;12.40;99.90;;;;;;2621306;46;20969;31
2023/10/25 07:00:51;;;;;;;13.55;7.85;;;12.40;99.90;;;;;;2603001;54;20863;31
2023/10/25 07:03:29;;;;;;;14.65;8.80;;;12.50;99.90;;;;;;2602964;54;20918;31
2023/10/25 07:06:08;;;;;;;12.25;6.90;;;12.60;99.90;;;;;;2603123;54;20030;31
2023/10/25 07:08:50;;;;;;;11.65;7.00;;;12.60;99.90;;;;;;2621876;46;20947;31
2023/10/25 07:11:25;;;;;;;10.40;6.50;;;12.50;99.90;;;;;;2603214;54;20022;31
2023/10/25 07:14:03;;;;;;;12.30;6.83;;;12.50;99.90;;;;;;2602992;54;20605;31
2023/10/25 07:16:39;;;;;;;10.63;6.63;;;12.50;99.90;;;;;;2602952;54;21016;31
2023/10/25 07:19:15;;;;;;;;;;;12.50;99.90;;;;;;2772931;31;20628;31
2023/10/25 07:21:51;;;;;;;9.75;5.53;;;12.40;99.90;;;;;;2620551;47;19941;31
2023/10/25 07:24:34;;;;;;;9.65;6.18;;;12.40;99.90;;;;;;2602678;54;20031;31
2023/10/25 07:27:08;;;;;;;10.55;6.20;;;12.40;99.90;;;;;;2602931;54;20048;31
2023/10/25 07:29:44;;;;;;;11.02;6.10;;;12.40;99.90;;;;;;2602920;54;20044;31
2023/10/25 07:32:20;;;;;;;11.02;6.15;;;12.40;99.90;;;;;;2602992;54;20033;31
2023/10/25 07:34:56;;;;;;;11.00;5.73;;;12.40;99.90;;;;;;2602869;54;20116;31
2023/10/25 07:37:32;;;;;;;8.75;5.75;;;12.40;99.90;;;;;;2602813;54;20137;31
2023/10/25 07:40:13;;;;;;;8.32;5.20;;;12.40;99.90;;;;;;2602997;54;20880;31
2023/10/25 07:42:50;;;;;;;6.50;4.25;;;12.40;99.90;;;;;;2621561;47;20054;31
2023/10/25 07:45:26;;;;;;;7.13;4.32;;;12.40;99.90;;;;;;2603113;54;20081;31
2023/10/25 07:48:02;;;;;;;6.97;4.13;;;12.50;99.90;;;;;;2621453;47;20026;31
2023/10/25 07:50:38;;;;;;;11.90;3.80;;;12.50;99.90;;;;;;2621429;47;20112;31
2023/10/25 07:53:13;;;;;;;7.38;3.60;;;12.50;99.90;;;;;;2602738;54;20845;31
2023/10/25 07:55:53;;;;;;;5.20;3.90;;;12.50;99.90;;;;;;2602837;54;20035;31
2023/10/25 07:58:50;;;;;;;6.55;4.10;;;12.50;99.90;;;;;;2602967;54;20928;31
2023/10/25 08:01:29;;;;;;;7.93;4.03;;;12.50;99.90;;;;;;2602975;54;20093;31
2023/10/25 08:04:06;;;;;;;8.55;4.55;;;12.50;99.90;;;;;;2602799;54;20687;31
2023/10/25 08:06:43;;;;;;;6.40;3.88;;;12.50;99.90;;;;;;2621145;47;20863;31
2023/10/25 08:09:19;;;;;;;9.48;4.35;;;12.50;99.90;;;;;;2602659;54;20069;31
2023/10/25 08:11:59;;;;;;;14.10;4.53;;;12.50;99.90;;;;;;2620956;47;20112;31
2023/10/25 08:14:35;;;;;;;7.90;4.30;;;12.50;99.90;;;;;;2606903;46;20089;31
2023/10/25 08:17:12;;;;;;;10.20;3.97;;;12.50;99.90;;;;;;2603506;54;20060;31
2023/10/25 08:19:49;;;;;;;7.40;3.95;;;12.50;99.90;;;;;;2622110;46;20023;31
2023/10/25 08:22:25;;;;;;;11.60;4.40;;;12.50;99.90;;;;;;2603799;54;20022;31
2023/10/25 08:25:02;;;;;;;4.25;2.85;;;12.50;99.90;;;;;;2603767;54;20869;31
2023/10/25 08:27:42;;;;;;;8.80;3.40;;;12.50;99.90;;;;;;2602834;54;20038;31
2023/10/25 08:30:20;;;;;;;5.05;2.60;;;12.50;99.90;;;;;;2622006;46;20038;31
2023/10/25 08:32:56;;;;;;;4.72;3.00;;;12.50;99.90;;;;;;2603511;54;20055;31
2023/10/25 08:35:33;;;;;;;;;;;12.50;99.90;;;;;;2603681;54;20050;31
2023/10/25 08:38:07;;;;;;;;;;;12.50;99.90;;;;;;2615135;46;19943;31
2023/10/25 08:40:44;;;;;;;4.03;2.33;;;12.50;99.90;;;;;;2621752;46;19993;31
2023/10/25 08:43:22;;;;;;;3.85;2.42;;;12.50;99.90;;;;;;2622074;46;20056;31
2023/10/25 08:46:00;;;;;;;3.63;2.10;;;12.50;99.90;;;;;;2603495;54;20046;31
2023/10/25 08:48:35;;;;;;;3.42;2.45;;;12.50;99.90;;;;;;2603473;54;20048;31
2023/10/25 08:51:12;;;;;;;3.87;2.40;;;12.50;99.90;;;;;;2603378;54;20027;31
2023/10/25 08:53:52;;;;;;;6.18;2.40;;;12.50;99.90;;;;;;2702194;39;20452;31
2023/10/25 08:56:27;;;;;;;2.70;1.80;;;12.50;99.90;;;;;;2603596;54;20882;31
2023/10/25 08:59:05;;;;;;;2.87;1.87;;;12.50;99.90;;;;;;2603502;54;20026;31
2023/10/25 09:01:41;;;;;;;3.28;2.30;;;12.60;99.90;;;;;;2603494;54;20922;31
2023/10/25 09:04:17;;;;;;;4.32;2.67;;;12.60;99.90;;;;;;2603512;54;20970;31
2023/10/25 09:06:54;;;;;;;5.30;2.13;;;12.60;99.90;;;;;;2702007;39;20528;31
2023/10/25 09:09:41;;;;;;;4.40;2.17;;;12.60;99.90;;;;;;2603576;54;20049;31
2023/10/25 09:12:22;;;;;;;2.38;1.63;;;12.70;99.90;;;;;;2701983;39;20571;31
2023/10/25 09:15:01;;;;;;;3.65;1.90;;;12.80;99.90;;;;;;2621978;46;20089;31
2023/10/25 09:17:38;;;;;;;3.38;2.15;;;12.80;99.90;;;;;;2622060;46;20030;31
2023/10/25 09:20:15;;;;;;;2.40;1.70;;;12.90;99.90;;;;;;2603553;54;20899;31
2023/10/25 09:22:56;;;;;;;2.10;1.60;;;12.90;99.90;;;;;;2603369;54;20077;31
2023/10/25 09:25:30;;;;;;;2.45;1.60;;;13.00;99.90;;;;;;2603370;54;20929;31
2023/10/25 09:28:06;;;;;;;4.93;3.40;;;13.00;99.90;;;;;;2603726;54;20084;31
2023/10/25 09:30:48;;;;;;;2.03;1.48;;;13.00;99.90;;;;;;2603250;54;20855;31
2023/10/25 09:33:24;;;;;;;2.40;1.60;;;13.00;99.90;;;;;;2621522;46;20108;31
2023/10/25 09:36:03;;;;;;;6.60;1.83;;;13.00;99.90;;;;;;2615795;46;20989;31
2023/10/25 09:38:40;;;;;;;2.22;1.45;;;13.10;99.90;;;;;;2621699;46;20883;31
2023/10/25 09:41:16;;;;;;;2.58;1.48;;;13.10;99.90;;;;;;2602673;54;20085;31
2023/10/25 09:43:52;;;;;;;2.53;1.40;;;13.10;99.90;;;;;;2603334;54;20034;31
2023/10/25 09:46:33;;;;;;;4.30;1.33;;;13.10;99.90;;;;;;2614661;46;19934;31
2023/10/25 09:49:13;;;;;;;2.00;1.30;;;13.20;99.90;;;;;;2621678;46;20030;31
2023/10/25 09:52:10;;;;;;;2.17;1.52;;;13.20;99.90;;;;;;2603144;54;20866;31
2023/10/25 09:54:50;;;;;;;3.40;2.10;;;13.20;99.90;;;;;;2602957;54;20026;31
2023/10/25 09:57:28;;;;;;;2.72;1.70;;;13.30;99.90;;;;;;2603221;54;20755;31
2023/10/25 10:00:05;;;;;;;3.28;1.92;;;13.30;99.90;;;;;;2603222;54;20097;31
2023/10/25 10:02:47;;;;;;;2.47;1.60;;;13.30;99.90;;;;;;2621776;46;20824;31
2023/10/25 10:05:26;;;;;;;2.17;1.55;;;13.30;99.90;;;;;;2603422;54;20035;31
2023/10/25 10:08:05;;;;;;;4.55;1.90;;;13.30;99.90;;;;;;2603284;54;20038;31
2023/10/25 10:10:43;;;;;;;2.80;1.88;;;13.30;99.90;;;;;;2602712;54;20051;31
2023/10/25 10:13:19;;;;;;;2.60;1.83;;;13.30;99.90;;;;;;2602385;54;21015;31
2023/10/25 10:16:00;;;;;;;3.70;2.30;;;13.30;99.90;;;;;;2603295;54;20169;31
2023/10/25 10:18:42;;;;;;;3.95;2.40;;;13.30;99.90;;;;;;2602487;54;20949;31
2023/10/25 10:21:20;;;;;;;3.15;1.83;;;13.40;99.90;;;;;;2602638;54;20030;31
2023/10/25 10:23:56;;;;;;;5.28;2.33;;;13.40;99.90;;;;;;2603209;54;20030;31
2023/10/25 10:26:56;;;;;;;3.42;2.20;;;13.40;99.90;;;;;;2603152;54;20820;31
2023/10/25 10:29:40;;;;;;;3.78;2.60;;;13.40;99.90;;;;;;2603011;54;20022;31
2023/10/25 10:32:16;;;;;;;3.75;2.75;;;13.50;99.90;;;;;;2603280;54;20879;31
2023/10/25 10:34:56;;;;;;;5.47;2.28;;;13.50;99.90;;;;;;2603108;54;20031;31
2023/10/25 10:37:32;;;;;;;5.25;2.25;;;13.50;99.90;;;;;;2621444;47;20129;31
2023/10/25 10:40:17;;;;;;;2.80;2.40;;;13.60;99.90;;;;;;2603243;54;20106;31
2023/10/25 10:42:55;;;;;;;4.45;2.42;;;13.60;99.90;;;;;;2603239;54;20080;31
2023/10/25 10:45:31;;;;;;;3.17;2.33;;;13.60;99.90;;;;;;2603147;54;20913;31
2023/10/25 10:48:11;;;;;;;3.63;2.40;;;13.60;99.90;;;;;;2603042;54;20941;31
2023/10/25 10:50:51;;;;;;;5.50;2.85;;;13.50;99.90;;;;;;2603360;54;20053;31
2023/10/25 10:53:27;;;;;;;4.80;2.75;;;13.50;99.90;;;;;;2603184;54;20031;31
2023/10/25 10:56:03;;;;;;;3.95;2.70;;;13.50;99.90;;;;;;2603292;54;20034;31
2023/10/25 10:58:39;;;;;;;3.05;2.30;;;13.50;99.90;;;;;;2603084;54;20923;31
2023/10/25 11:01:13;;;;;;;3.27;2.33;;;13.50;99.90;;;;;;2701895;39;20968;31
2023/10/25 11:03:51;;;;;;;4.47;2.43;;;13.40;99.90;;;;;;2603317;54;20242;31
2023/10/25 11:06:30;;;;;;;3.60;2.40;;;13.40;99.90;;;;;;2621606;46;20268;31
2023/10/25 11:09:10;;;;;;;4.57;2.83;;;13.40;99.90;;;;;;2603082;54;19942;31
2023/10/25 11:11:46;;;;;;;4.60;2.67;;;13.40;99.90;;;;;;2603101;54;20608;31
2023/10/25 11:14:27;;;;;;;5.60;2.55;;;13.40;99.90;;;;;;2603032;54;20104;31
2023/10/25 11:17:07;;;;;;;3.83;2.67;;;13.40;99.90;;;;;;2603183;54;20144;31
2023/10/25 11:19:42;;;;;;;6.15;3.55;;;13.50;99.90;;;;;;2603263;54;20131;31
2023/10/25 11:22:54;;;;;;;3.65;2.70;;;13.50;99.90;;;;;;2603071;54;20022;31
2023/10/25 11:25:37;;;;;;;5.28;3.17;;;13.50;99.90;;;;;;2603026;54;20037;31
2023/10/25 11:28:24;;;;;;;4.10;2.90;;;13.60;99.90;;;;;;2602960;54;20907;31
2023/10/25 11:31:05;;;;;;;3.15;2.65;;;13.60;99.90;;;;;;2603177;54;20873;31
2023/10/25 11:33:47;;;;;;;4.65;3.25;;;13.70;99.90;;;;;;2621146;47;20578;31
2023/10/25 11:36:23;;;;;;;5.07;3.75;;;13.70;99.90;;;;;;2621178;47;20049;31
2023/10/25 11:39:08;;;;;;;3.70;2.75;;;13.80;99.90;;;;;;2603186;54;20933;31
2023/10/25 11:41:47;;;;;;;4.30;2.90;;;13.80;99.90;;;;;;2701439;39;21361;31
2023/10/25 11:44:27;;;;;;;4.07;2.95;;;13.90;99.90;;;;;;2602920;54;20113;31
2023/10/25 11:47:04;;;;;;;5.90;2.97;;;13.90;99.90;;;;;;2602185;54;20034;31
2023/10/25 11:49:40;;;;;;;4.05;3.00;;;14.00;99.90;;;;;;2602852;54;20953;31
2023/10/25 11:52:16;;;;;;;3.47;2.78;;;14.10;99.90;;;;;;2720747;39;20560;31
2023/10/25 11:54:55;;;;;;;3.63;2.70;;;14.20;99.90;;;;;;2603862;54;20080;31
2023/10/25 11:57:34;;;;;;;3.47;2.70;;;14.20;99.90;;;;;;2603776;54;20026;31
2023/10/25 12:00:11;;;;;;;5.73;2.37;;;14.30;99.90;;;;;;2603693;54;20850;31
2023/10/25 12:02:45;;;;;;;3.25;2.00;;;14.30;99.90;;;;;;2603615;54;20830;31
2023/10/25 12:05:21;;;;;;;3.40;2.20;;;14.40;99.90;;;;;;2622177;46;20607;31
2023/10/25 12:07:59;;;;;;;4.10;1.90;;;14.70;99.90;;;;;;2603618;54;20926;31
2023/10/25 12:10:35;;;;;;;4.05;2.63;;;14.80;99.90;;;;;;2603871;54;20925;31
2023/10/25 12:13:09;;;;;;;3.72;2.70;;;14.70;99.90;;;;;;2622114;46;20573;31
2023/10/25 12:15:50;;;;;;;3.80;2.33;;;14.80;99.90;;;;;;2603702;54;20068;31
2023/10/25 12:18:25;;;;;;;3.90;2.42;;;14.80;99.90;;;;;;2603818;54;20157;31
2023/10/25 12:21:03;;;;;;;3.33;2.47;;;14.80;99.90;;;;;;2603633;54;20042;31
2023/10/25 12:23:39;;;;;;;5.13;2.60;;;14.90;99.90;;;;;;2603517;54;20592;31
2023/10/25 12:26:15;;;;;;;4.13;2.35;;;15.00;99.90;;;;;;2603667;54;20038;31
2023/10/25 12:28:50;;;;;;;2.60;1.90;;;15.10;99.90;;;;;;2622481;46;20026;31
2023/10/25 12:31:29;;;;;;;2.60;1.90;;;15.10;99.90;;;;;;2702147;39;20567;31
2023/10/25 12:34:04;;;;;;;3.35;2.00;;;15.00;99.90;;;;;;2702028;39;21461;31
2023/10/25 12:36:40;;;;;;;5.47;2.08;;;15.00;99.90;;;;;;2603569;54;20078;31
2023/10/25 12:39:16;;;;;;;5.25;1.85;;;14.90;99.90;;;;;;2603769;54;20853;31
2023/10/25 12:41:53;;;;;;;2.35;1.50;;;14.90;99.90;;;;;;2621733;46;20902;31
2023/10/25 12:44:28;;;;;;;3.70;1.80;;;14.90;99.90;;;;;;2603702;54;20031;31
2023/10/25 12:47:07;;;;;;;2.17;1.58;;;14.80;99.90;;;;;;2603500;54;20062;31
2023/10/25 12:49:43;;;;;;;4.50;1.90;;;14.80;99.90;;;;;;2602717;54;20050;31
2023/10/25 12:52:21;;;;;;;3.05;1.95;;;14.80;99.90;;;;;;2603473;54;20837;31
2023/10/25 12:54:58;;;;;;;3.35;2.00;;;14.80;99.90;;;;;;2603778;54;20843;31
2023/10/25 12:57:33;;;;;;;3.28;2.20;;;14.70;99.90;;;;;;2602783;54;20019;31
2023/10/25 13:00:10;;;;;;;2.40;1.70;;;14.70;99.90;;;;;;2603369;54;20039;31
2023/10/25 13:02:50;;;;;;;3.40;2.00;;;14.70;99.90;;;;;;2702025;39;21397;31
2023/10/25 13:05:28;;;;;;;2.45;2.10;;;14.70;99.90;;;;;;2621859;46;20101;31
2023/10/25 13:08:07;;;;;;;2.75;1.83;;;14.60;99.90;;;;;;2603224;54;20034;31
2023/10/25 13:13:18;;;;;;;3.10;2.00;;;14.50;99.90;;;;;;2603539;54;20038;31
2023/10/25 13:15:52;;;;;;;3.60;2.03;;;14.50;99.90;;;;;;2603301;54;20030;31
2023/10/25 13:18:35;;;;;;;2.57;1.90;;;14.50;99.90;;;;;;2621882;46;20027;31
2023/10/25 13:21:12;;;;;;;3.85;2.25;;;14.40;99.90;;;;;;2603427;54;20033;31
2023/10/25 13:23:50;;;;;;;2.70;1.75;;;14.40;99.90;;;;;;2603403;54;20034;31
2023/10/25 13:26:26;;;;;;;3.05;1.85;;;14.40;99.90;;;;;;2621998;46;20030;31
2023/10/25 13:29:04;;;;;;;3.00;2.17;;;14.30;99.90;;;;;;2603438;54;20905;31
2023/10/25 13:31:41;;;;;;;3.97;2.33;;;14.40;99.90;;;;;;2603174;54;20972;31
2023/10/25 13:34:23;;;;;;;4.15;1.95;;;14.30;99.90;;;;;;2603471;54;20911;31
2023/10/25 13:37:00;;;;;;;3.70;1.87;;;14.30;99.90;;;;;;2603377;54;20031;31
2023/10/25 13:39:39;;;;;;;3.75;1.83;;;14.30;99.90;;;;;;2622309;46;20112;31
2023/10/25 13:42:11;;;;;;;2.70;2.30;;;14.30;99.90;;;;;;2603602;54;20916;31
2023/10/25 13:44:47;;;;;;;3.53;2.28;;;14.30;99.90;;;;;;2603280;54;20863;31